ETH901 HAAB-DNMM
Flight info
| Callsign | ETH901 |
|---|---|
| Flight time | N/A |
| Altitude | 38000 |
| Route | BRO4B BRO DCT KAFIA UA410 IPISU UQ200 KODOV/N0485F400 UQ200 LAG |
| Aircraft | A35K/H-SDE2E3GHIJ3J4J5LM1ORWXY/LB1D1 |
Departure
| Time | N/A |
|---|---|
| Airport | Addis Ababa Bole International Airport (HAAB) |
Arrival
| Time | 2026-05-04 20:59 |
|---|---|
| Airport | Murtala Muhammed International Airport (DNMM) |
| Time | Latitude | Longitude | Altitude | Speed | Heading |
|---|---|---|---|---|---|
| 2026-05-04 16:31 | 8.87924 | 38.52918 | 13442 ft | 378 kts | 257° |
| 2026-05-04 16:32 | 8.86056 | 38.45045 | 15353 ft | 389 kts | 257° |
| 2026-05-04 16:33 | 8.84793 | 38.39722 | 16486 ft | 395 kts | 257° |
| 2026-05-04 16:33 | 8.83492 | 38.34263 | 17646 ft | 402 kts | 257° |
| 2026-05-04 16:34 | 8.82293 | 38.28694 | 18849 ft | 408 kts | 259° |
| 2026-05-04 16:34 | 8.81718 | 38.25873 | 19412 ft | 412 kts | 259° |
| 2026-05-04 16:35 | 8.79940 | 38.17282 | 21007 ft | 420 kts | 258° |
| 2026-05-04 16:35 | 8.78114 | 38.08531 | 22475 ft | 430 kts | 258° |
| 2026-05-04 16:36 | 8.77484 | 38.05524 | 22956 ft | 433 kts | 258° |
| 2026-05-04 16:36 | 8.76235 | 37.99562 | 23835 ft | 439 kts | 258° |
| 2026-05-04 16:37 | 8.74962 | 37.93483 | 24630 ft | 446 kts | 258° |
| 2026-05-04 16:37 | 8.74317 | 37.90405 | 25079 ft | 449 kts | 258° |
| 2026-05-04 16:37 | 8.73015 | 37.84199 | 26020 ft | 454 kts | 258° |
| 2026-05-04 16:38 | 8.71691 | 37.77904 | 27025 ft | 460 kts | 258° |
| 2026-05-04 16:39 | 8.69675 | 37.68315 | 28466 ft | 469 kts | 258° |
| 2026-05-04 16:39 | 8.68541 | 37.62926 | 29229 ft | 474 kts | 258° |
| 2026-05-04 16:40 | 8.67162 | 37.56375 | 30082 ft | 480 kts | 258° |
| 2026-05-04 16:40 | 8.65762 | 37.49732 | 30877 ft | 485 kts | 258° |
| 2026-05-04 16:41 | 8.64354 | 37.43048 | 31609 ft | 491 kts | 258° |
| 2026-05-04 16:41 | 8.62191 | 37.32820 | 32570 ft | 500 kts | 258° |
| 2026-05-04 16:42 | 8.59998 | 37.22455 | 33634 ft | 503 kts | 258° |
| 2026-05-04 16:43 | 8.58544 | 37.15565 | 34476 ft | 500 kts | 258° |
| 2026-05-04 16:43 | 8.57350 | 37.08646 | 35204 ft | 499 kts | 260° |
| 2026-05-04 16:43 | 8.56772 | 37.05184 | 35545 ft | 499 kts | 260° |
| 2026-05-04 16:44 | 8.54410 | 36.91433 | 36907 ft | 496 kts | 260° |
| 2026-05-04 16:45 | 8.53235 | 36.84660 | 37757 ft | 488 kts | 260° |
| 2026-05-04 16:46 | 8.51473 | 36.74530 | 38202 ft | 490 kts | 260° |
| 2026-05-04 16:46 | 8.50289 | 36.67727 | 38197 ft | 491 kts | 260° |
| 2026-05-04 16:47 | 8.47923 | 36.54172 | 38188 ft | 491 kts | 260° |
| 2026-05-04 16:48 | 8.45547 | 36.40570 | 38175 ft | 491 kts | 259° |
| 2026-05-04 16:49 | 8.43174 | 36.27017 | 38164 ft | 491 kts | 260° |
| 2026-05-04 16:50 | 8.40788 | 36.13425 | 38160 ft | 491 kts | 259° |
| 2026-05-04 16:51 | 8.39005 | 36.03288 | 38151 ft | 491 kts | 259° |
| 2026-05-04 16:52 | 8.36613 | 35.89703 | 38146 ft | 491 kts | 259° |
| 2026-05-04 16:53 | 8.34814 | 35.79508 | 38127 ft | 491 kts | 259° |
| 2026-05-04 16:54 | 8.32422 | 35.65971 | 38118 ft | 491 kts | 259° |
| 2026-05-04 16:55 | 8.28806 | 35.45575 | 38121 ft | 491 kts | 259° |
| 2026-05-04 16:56 | 8.25798 | 35.28660 | 38112 ft | 491 kts | 259° |
| 2026-05-04 16:57 | 8.23983 | 35.18480 | 38104 ft | 491 kts | 259° |
| 2026-05-04 16:58 | 8.21566 | 35.04913 | 38096 ft | 491 kts | 259° |
| 2026-05-04 17:00 | 8.17932 | 34.84611 | 38084 ft | 491 kts | 259° |
| 2026-05-04 17:01 | 8.14894 | 34.67652 | 38074 ft | 491 kts | 259° |
| 2026-05-04 17:02 | 8.12989 | 34.54052 | 38068 ft | 490 kts | 272° |
| 2026-05-04 17:03 | 8.13594 | 34.43741 | 38064 ft | 491 kts | 275° |
| 2026-05-04 17:03 | 8.14377 | 34.33433 | 38054 ft | 491 kts | 274° |
| 2026-05-04 17:04 | 8.15317 | 34.19722 | 38054 ft | 491 kts | 274° |
| 2026-05-04 17:05 | 8.16244 | 34.05958 | 38045 ft | 491 kts | 274° |
| 2026-05-04 17:06 | 8.16942 | 33.95628 | 38036 ft | 491 kts | 274° |
| 2026-05-04 17:07 | 8.17558 | 33.86465 | 38036 ft | 491 kts | 274° |
| 2026-05-04 17:07 | 8.18094 | 33.78464 | 38036 ft | 491 kts | 274° |
| 2026-05-04 17:08 | 8.18781 | 33.68146 | 38028 ft | 491 kts | 274° |
| 2026-05-04 17:09 | 8.19242 | 33.61267 | 38025 ft | 491 kts | 274° |
| 2026-05-04 17:09 | 8.19697 | 33.54381 | 38025 ft | 491 kts | 274° |
| 2026-05-04 17:10 | 8.20828 | 33.37225 | 38025 ft | 491 kts | 274° |
| 2026-05-04 17:11 | 8.21283 | 33.30341 | 38021 ft | 491 kts | 274° |
| 2026-05-04 17:12 | 8.21952 | 33.20018 | 38017 ft | 491 kts | 274° |
| 2026-05-04 17:13 | 8.23070 | 33.02844 | 38017 ft | 491 kts | 274° |
| 2026-05-04 17:14 | 8.23969 | 32.89068 | 38017 ft | 491 kts | 274° |
| 2026-05-04 17:15 | 8.24633 | 32.78749 | 38011 ft | 491 kts | 274° |
| 2026-05-04 17:16 | 8.25518 | 32.65016 | 38009 ft | 491 kts | 274° |
| 2026-05-04 17:17 | 8.26395 | 32.51252 | 38008 ft | 491 kts | 274° |
| 2026-05-04 17:18 | 8.27260 | 32.37455 | 38017 ft | 492 kts | 274° |
| 2026-05-04 17:19 | 8.28133 | 32.23709 | 38008 ft | 492 kts | 274° |
| 2026-05-04 17:20 | 8.29002 | 32.09915 | 38008 ft | 492 kts | 274° |
| 2026-05-04 17:20 | 8.29646 | 31.99618 | 38008 ft | 492 kts | 274° |
| 2026-05-04 17:21 | 8.30508 | 31.85813 | 38008 ft | 491 kts | 274° |
| 2026-05-04 17:22 | 8.30928 | 31.78929 | 38008 ft | 492 kts | 274° |
| 2026-05-04 17:23 | 8.31778 | 31.65135 | 38010 ft | 492 kts | 274° |
| 2026-05-04 17:24 | 8.32410 | 31.54822 | 38007 ft | 492 kts | 274° |
| 2026-05-04 17:25 | 8.33254 | 31.41019 | 38000 ft | 492 kts | 274° |
| 2026-05-04 17:26 | 8.34094 | 31.27231 | 37999 ft | 492 kts | 274° |
| 2026-05-04 17:27 | 8.35131 | 31.10027 | 37999 ft | 492 kts | 273° |
| 2026-05-04 17:28 | 8.35953 | 30.96228 | 38008 ft | 492 kts | 273° |
| 2026-05-04 17:29 | 8.37185 | 30.75572 | 38054 ft | 491 kts | 273° |
| 2026-05-04 17:31 | 8.38138 | 30.59483 | 38045 ft | 492 kts | 273° |
| 2026-05-04 17:32 | 8.39144 | 30.42276 | 38047 ft | 493 kts | 273° |
| 2026-05-04 17:33 | 8.39953 | 30.28449 | 38045 ft | 493 kts | 274° |
| 2026-05-04 17:34 | 8.40746 | 30.14639 | 38037 ft | 492 kts | 273° |
| 2026-05-04 17:35 | 8.41739 | 29.97411 | 38017 ft | 492 kts | 273° |
| 2026-05-04 17:36 | 8.42130 | 29.90500 | 38017 ft | 492 kts | 273° |
| 2026-05-04 17:36 | 8.42524 | 29.83599 | 38018 ft | 493 kts | 273° |
| 2026-05-04 17:37 | 8.42919 | 29.76680 | 38017 ft | 492 kts | 273° |
| 2026-05-04 17:37 | 8.43307 | 29.69772 | 38017 ft | 493 kts | 273° |
| 2026-05-04 17:38 | 8.43693 | 29.62903 | 38017 ft | 493 kts | 273° |
| 2026-05-04 17:38 | 8.44084 | 29.55998 | 38017 ft | 492 kts | 273° |
| 2026-05-04 17:39 | 8.44666 | 29.45633 | 38008 ft | 492 kts | 273° |
| 2026-05-04 17:39 | 8.45002 | 29.38728 | 38006 ft | 491 kts | 269° |
| 2026-05-04 17:40 | 8.44404 | 29.31853 | 38008 ft | 491 kts | 262° |
| 2026-05-04 17:40 | 8.43385 | 29.25070 | 38008 ft | 492 kts | 261° |
| 2026-05-04 17:41 | 8.42279 | 29.18256 | 38008 ft | 491 kts | 261° |
| 2026-05-04 17:41 | 8.41191 | 29.11439 | 38008 ft | 491 kts | 261° |
| 2026-05-04 17:42 | 8.40122 | 29.04608 | 37998 ft | 491 kts | 261° |
| 2026-05-04 17:42 | 8.39062 | 28.97791 | 37999 ft | 491 kts | 261° |
| 2026-05-04 17:43 | 8.37998 | 28.90973 | 37998 ft | 491 kts | 261° |
| 2026-05-04 17:43 | 8.36936 | 28.84195 | 37999 ft | 491 kts | 261° |
| 2026-05-04 17:44 | 8.35874 | 28.77383 | 37998 ft | 491 kts | 261° |
| 2026-05-04 17:44 | 8.34806 | 28.70566 | 37999 ft | 492 kts | 261° |
| 2026-05-04 17:45 | 8.33735 | 28.63742 | 37991 ft | 491 kts | 261° |
| 2026-05-04 17:45 | 8.32669 | 28.56930 | 37991 ft | 491 kts | 261° |
| 2026-05-04 17:46 | 8.31597 | 28.50112 | 37990 ft | 491 kts | 261° |
| 2026-05-04 17:46 | 8.30523 | 28.43298 | 37990 ft | 491 kts | 261° |
| 2026-05-04 17:47 | 8.29448 | 28.36479 | 37989 ft | 492 kts | 261° |
| 2026-05-04 17:47 | 8.28373 | 28.29667 | 37989 ft | 491 kts | 261° |
| 2026-05-04 17:48 | 8.27306 | 28.22895 | 37990 ft | 491 kts | 261° |
| 2026-05-04 17:48 | 8.26227 | 28.16074 | 37983 ft | 492 kts | 261° |
| 2026-05-04 17:49 | 8.25146 | 28.09249 | 37981 ft | 492 kts | 261° |
| 2026-05-04 17:49 | 8.24059 | 28.02422 | 37980 ft | 492 kts | 261° |
| 2026-05-04 17:50 | 8.22983 | 27.95636 | 37980 ft | 491 kts | 261° |
| 2026-05-04 17:50 | 8.21902 | 27.88818 | 37979 ft | 492 kts | 261° |
| 2026-05-04 17:51 | 8.20821 | 27.81997 | 37979 ft | 492 kts | 261° |
| 2026-05-04 17:51 | 8.19742 | 27.75207 | 37980 ft | 493 kts | 261° |
| 2026-05-04 17:52 | 8.18654 | 27.68379 | 37980 ft | 492 kts | 261° |
| 2026-05-04 17:52 | 8.17566 | 27.61560 | 37961 ft | 492 kts | 261° |
| 2026-05-04 17:53 | 8.16477 | 27.54738 | 37961 ft | 492 kts | 261° |
| 2026-05-04 17:53 | 8.15388 | 27.47933 | 37958 ft | 491 kts | 261° |
| 2026-05-04 17:54 | 8.14298 | 27.41123 | 37961 ft | 491 kts | 261° |
| 2026-05-04 17:54 | 8.13208 | 27.34318 | 37977 ft | 491 kts | 261° |
| 2026-05-04 17:55 | 8.12118 | 27.27513 | 37977 ft | 491 kts | 261° |
| 2026-05-04 17:55 | 8.11023 | 27.20703 | 37977 ft | 491 kts | 261° |
| 2026-05-04 17:56 | 8.09939 | 27.13952 | 37955 ft | 491 kts | 261° |
| 2026-05-04 17:56 | 8.08843 | 27.07137 | 37958 ft | 490 kts | 261° |
| 2026-05-04 17:57 | 8.07748 | 27.00336 | 37957 ft | 491 kts | 261° |
| 2026-05-04 17:57 | 8.06656 | 26.93534 | 37967 ft | 491 kts | 261° |
| 2026-05-04 17:58 | 8.05561 | 26.86754 | 37970 ft | 491 kts | 261° |
| 2026-05-04 17:58 | 8.04461 | 26.79944 | 37960 ft | 491 kts | 261° |
| 2026-05-04 17:59 | 8.03361 | 26.73144 | 37964 ft | 491 kts | 261° |
| 2026-05-04 18:00 | 8.01714 | 26.62975 | 37954 ft | 491 kts | 261° |
| 2026-05-04 18:00 | 8.00607 | 26.56154 | 37945 ft | 492 kts | 261° |
| 2026-05-04 18:01 | 7.99498 | 26.49340 | 37947 ft | 491 kts | 261° |
| 2026-05-04 18:01 | 7.98391 | 26.42532 | 37947 ft | 492 kts | 261° |
| 2026-05-04 18:02 | 7.96730 | 26.32364 | 37954 ft | 491 kts | 261° |
| 2026-05-04 18:02 | 7.95622 | 26.25557 | 37954 ft | 492 kts | 261° |
| 2026-05-04 18:03 | 7.94513 | 26.18735 | 37957 ft | 492 kts | 261° |
| 2026-05-04 18:03 | 7.93401 | 26.11926 | 37969 ft | 491 kts | 261° |
| 2026-05-04 18:04 | 7.92288 | 26.05107 | 37972 ft | 491 kts | 261° |
| 2026-05-04 18:05 | 7.90626 | 25.94945 | 37966 ft | 492 kts | 261° |
| 2026-05-04 18:05 | 7.89505 | 25.88135 | 37949 ft | 492 kts | 261° |
| 2026-05-04 18:06 | 7.87827 | 25.77909 | 37957 ft | 492 kts | 261° |
| 2026-05-04 18:06 | 7.86712 | 25.71099 | 37948 ft | 492 kts | 261° |
| 2026-05-04 18:07 | 7.85592 | 25.64293 | 37953 ft | 491 kts | 261° |
| 2026-05-04 18:07 | 7.84478 | 25.57528 | 37945 ft | 491 kts | 261° |
| 2026-05-04 18:08 | 7.83357 | 25.50728 | 37951 ft | 491 kts | 261° |
| 2026-05-04 18:08 | 7.82234 | 25.43924 | 37948 ft | 491 kts | 260° |
| 2026-05-04 18:09 | 7.79997 | 25.30380 | 37941 ft | 491 kts | 261° |
| 2026-05-04 18:10 | 7.78871 | 25.23577 | 37908 ft | 491 kts | 261° |
| 2026-05-04 18:10 | 7.77744 | 25.16778 | 37905 ft | 491 kts | 261° |
| 2026-05-04 18:11 | 7.76615 | 25.09975 | 37906 ft | 492 kts | 261° |
| 2026-05-04 18:11 | 7.75492 | 25.03205 | 37905 ft | 491 kts | 261° |
| 2026-05-04 18:12 | 7.74544 | 24.97515 | 37906 ft | 492 kts | 261° |
| 2026-05-04 18:12 | 7.73602 | 24.91858 | 37907 ft | 492 kts | 261° |
| 2026-05-04 18:13 | 7.72094 | 24.82802 | 37894 ft | 491 kts | 261° |
| 2026-05-04 18:14 | 7.70403 | 24.72603 | 37896 ft | 491 kts | 261° |
| 2026-05-04 18:14 | 7.69276 | 24.65848 | 37899 ft | 492 kts | 261° |
| 2026-05-04 18:15 | 7.66996 | 24.52241 | 37895 ft | 492 kts | 261° |
| 2026-05-04 18:16 | 7.65857 | 24.45423 | 37895 ft | 492 kts | 261° |
| 2026-05-04 18:16 | 7.64719 | 24.38656 | 37895 ft | 492 kts | 261° |
| 2026-05-04 18:17 | 7.63199 | 24.29597 | 37901 ft | 492 kts | 261° |
| 2026-05-04 18:18 | 7.61486 | 24.19390 | 37899 ft | 492 kts | 261° |
| 2026-05-04 18:18 | 7.60341 | 24.12591 | 37895 ft | 492 kts | 261° |
| 2026-05-04 18:19 | 7.58623 | 24.02392 | 37894 ft | 492 kts | 261° |
| 2026-05-04 18:19 | 7.57474 | 23.95595 | 37899 ft | 492 kts | 261° |
| 2026-05-04 18:20 | 7.56331 | 23.88793 | 37896 ft | 492 kts | 261° |
| 2026-05-04 18:20 | 7.55188 | 23.82029 | 37894 ft | 492 kts | 260° |
| 2026-05-04 18:21 | 7.54038 | 23.75232 | 37895 ft | 492 kts | 260° |
| 2026-05-04 18:21 | 7.52885 | 23.68424 | 37884 ft | 492 kts | 260° |
| 2026-05-04 18:22 | 7.51733 | 23.61631 | 37886 ft | 492 kts | 261° |
| 2026-05-04 18:22 | 7.50580 | 23.54825 | 37887 ft | 492 kts | 261° |
| 2026-05-04 18:23 | 7.49423 | 23.48024 | 37884 ft | 492 kts | 260° |
| 2026-05-04 18:23 | 7.48274 | 23.41267 | 37888 ft | 492 kts | 260° |
| 2026-05-04 18:24 | 7.47112 | 23.34429 | 37884 ft | 492 kts | 260° |
| 2026-05-04 18:24 | 7.45961 | 23.27669 | 37887 ft | 492 kts | 260° |
| 2026-05-04 18:25 | 7.44803 | 23.20867 | 37887 ft | 492 kts | 260° |
| 2026-05-04 18:25 | 7.43641 | 23.14056 | 37892 ft | 492 kts | 260° |
| 2026-05-04 18:26 | 7.42482 | 23.07268 | 37886 ft | 492 kts | 260° |
| 2026-05-04 18:26 | 7.41329 | 23.00516 | 37888 ft | 492 kts | 260° |
| 2026-05-04 18:27 | 7.40167 | 22.93720 | 37887 ft | 491 kts | 260° |
| 2026-05-04 18:27 | 7.39005 | 22.86936 | 37888 ft | 492 kts | 260° |
| 2026-05-04 18:28 | 7.37838 | 22.80142 | 37886 ft | 492 kts | 260° |
| 2026-05-04 18:28 | 7.36672 | 22.73360 | 37886 ft | 491 kts | 260° |
| 2026-05-04 18:29 | 7.35512 | 22.66614 | 37890 ft | 492 kts | 260° |
| 2026-05-04 18:29 | 7.34349 | 22.59822 | 37890 ft | 492 kts | 260° |
| 2026-05-04 18:30 | 7.32598 | 22.49642 | 37886 ft | 492 kts | 260° |
| 2026-05-04 18:31 | 7.31427 | 22.42847 | 37883 ft | 492 kts | 260° |
| 2026-05-04 18:31 | 7.30257 | 22.36062 | 37867 ft | 491 kts | 260° |
| 2026-05-04 18:32 | 7.29085 | 22.29274 | 37878 ft | 491 kts | 260° |
| 2026-05-04 18:32 | 7.27924 | 22.22536 | 37878 ft | 492 kts | 260° |
| 2026-05-04 18:33 | 7.26748 | 22.15745 | 37883 ft | 491 kts | 260° |
| 2026-05-04 18:33 | 7.25577 | 22.08963 | 37880 ft | 491 kts | 260° |
| 2026-05-04 18:34 | 7.24401 | 22.02179 | 37881 ft | 491 kts | 260° |
| 2026-05-04 18:34 | 7.23221 | 21.95388 | 37876 ft | 491 kts | 260° |
| 2026-05-04 18:35 | 7.22044 | 21.88614 | 37879 ft | 491 kts | 260° |
| 2026-05-04 18:35 | 7.20870 | 21.81840 | 37879 ft | 490 kts | 260° |
| 2026-05-04 18:36 | 7.19752 | 21.75114 | 37879 ft | 490 kts | 264° |
| 2026-05-04 18:36 | 7.19545 | 21.68268 | 37880 ft | 490 kts | 270° |
| 2026-05-04 18:37 | 7.19657 | 21.61398 | 37875 ft | 490 kts | 271° |
| 2026-05-04 18:37 | 7.19816 | 21.54540 | 37880 ft | 490 kts | 271° |
| 2026-05-04 18:38 | 7.19966 | 21.47677 | 37882 ft | 489 kts | 271° |
| 2026-05-04 18:38 | 7.20106 | 21.40820 | 37884 ft | 490 kts | 271° |
| 2026-05-04 18:39 | 7.20238 | 21.33948 | 37877 ft | 491 kts | 271° |
| 2026-05-04 18:39 | 7.20368 | 21.27079 | 37882 ft | 490 kts | 271° |
| 2026-05-04 18:40 | 7.20499 | 21.20246 | 37880 ft | 490 kts | 271° |
| 2026-05-04 18:40 | 7.20629 | 21.13378 | 37880 ft | 490 kts | 271° |
| 2026-05-04 18:41 | 7.20758 | 21.06518 | 37876 ft | 490 kts | 271° |
| 2026-05-04 18:41 | 7.20885 | 20.99648 | 37876 ft | 490 kts | 271° |
| 2026-05-04 18:42 | 7.21012 | 20.92786 | 37881 ft | 490 kts | 271° |
| 2026-05-04 18:42 | 7.21139 | 20.85926 | 37880 ft | 490 kts | 271° |
| 2026-05-04 18:43 | 7.21278 | 20.79099 | 37857 ft | 489 kts | 271° |
| 2026-05-04 18:43 | 7.21441 | 20.72235 | 37859 ft | 490 kts | 271° |
| 2026-05-04 18:44 | 7.21602 | 20.65378 | 37860 ft | 489 kts | 271° |
| 2026-05-04 18:44 | 7.21756 | 20.58520 | 37859 ft | 489 kts | 271° |
| 2026-05-04 18:45 | 7.21912 | 20.51669 | 37856 ft | 489 kts | 271° |
| 2026-05-04 18:45 | 7.22064 | 20.44857 | 37856 ft | 489 kts | 271° |
| 2026-05-04 18:46 | 7.22212 | 20.37996 | 37856 ft | 489 kts | 271° |
| 2026-05-04 18:46 | 7.22363 | 20.31145 | 37861 ft | 489 kts | 271° |
| 2026-05-04 18:47 | 7.22514 | 20.24299 | 37860 ft | 489 kts | 271° |
| 2026-05-04 18:47 | 7.22663 | 20.17482 | 37859 ft | 489 kts | 271° |
| 2026-05-04 18:48 | 7.22790 | 20.11739 | 37857 ft | 488 kts | 271° |
| 2026-05-04 18:48 | 7.22958 | 20.03767 | 37861 ft | 489 kts | 271° |
| 2026-05-04 18:49 | 7.23102 | 19.96964 | 37859 ft | 489 kts | 271° |
| 2026-05-04 18:49 | 7.23248 | 19.90106 | 37860 ft | 489 kts | 271° |
| 2026-05-04 18:50 | 7.23390 | 19.83262 | 37863 ft | 489 kts | 271° |
| 2026-05-04 18:50 | 7.23531 | 19.76420 | 37862 ft | 488 kts | 271° |
| 2026-05-04 18:51 | 7.23675 | 19.69570 | 37858 ft | 489 kts | 271° |
| 2026-05-04 18:51 | 7.23815 | 19.62764 | 37859 ft | 489 kts | 271° |
| 2026-05-04 18:52 | 7.23955 | 19.55906 | 37858 ft | 489 kts | 271° |
| 2026-05-04 18:52 | 7.24093 | 19.49063 | 37860 ft | 489 kts | 271° |
| 2026-05-04 18:53 | 7.24228 | 19.42211 | 37859 ft | 489 kts | 271° |
| 2026-05-04 18:53 | 7.24364 | 19.35359 | 37856 ft | 489 kts | 271° |
| 2026-05-04 18:54 | 7.24500 | 19.28550 | 37857 ft | 489 kts | 271° |
| 2026-05-04 18:54 | 7.24635 | 19.21710 | 37861 ft | 489 kts | 271° |
| 2026-05-04 18:55 | 7.24769 | 19.14862 | 37858 ft | 489 kts | 271° |
| 2026-05-04 18:55 | 7.24967 | 19.04574 | 37859 ft | 489 kts | 271° |
| 2026-05-04 18:56 | 7.25098 | 18.97749 | 37857 ft | 489 kts | 271° |
| 2026-05-04 18:56 | 7.25232 | 18.90888 | 37862 ft | 489 kts | 271° |
| 2026-05-04 18:57 | 7.25359 | 18.84035 | 37856 ft | 489 kts | 271° |
| 2026-05-04 18:57 | 7.25482 | 18.77226 | 37859 ft | 489 kts | 271° |
| 2026-05-04 18:58 | 7.25610 | 18.70368 | 37857 ft | 489 kts | 271° |
| 2026-05-04 18:58 | 7.25738 | 18.63515 | 37859 ft | 489 kts | 271° |
| 2026-05-04 18:59 | 7.25863 | 18.56663 | 37855 ft | 489 kts | 271° |
| 2026-05-04 18:59 | 7.25985 | 18.49817 | 37859 ft | 489 kts | 271° |
| 2026-05-04 19:00 | 7.26109 | 18.42961 | 37868 ft | 490 kts | 271° |
| 2026-05-04 19:00 | 7.26229 | 18.36105 | 37871 ft | 489 kts | 271° |
| 2026-05-04 19:01 | 7.26349 | 18.29257 | 37859 ft | 489 kts | 271° |
| 2026-05-04 19:01 | 7.26470 | 18.22446 | 37858 ft | 490 kts | 271° |
| 2026-05-04 19:02 | 7.26588 | 18.15540 | 37858 ft | 490 kts | 270° |
| 2026-05-04 19:02 | 7.26705 | 18.08726 | 37857 ft | 489 kts | 271° |
| 2026-05-04 19:03 | 7.26821 | 18.01868 | 37862 ft | 489 kts | 271° |
| 2026-05-04 19:03 | 7.26935 | 17.95012 | 37863 ft | 489 kts | 271° |
| 2026-05-04 19:04 | 7.27030 | 17.89317 | 37858 ft | 489 kts | 271° |
| 2026-05-04 19:04 | 7.27144 | 17.82462 | 37858 ft | 489 kts | 271° |
| 2026-05-04 19:05 | 7.27260 | 17.75605 | 37856 ft | 489 kts | 271° |
| 2026-05-04 19:05 | 7.27372 | 17.68747 | 37857 ft | 489 kts | 270° |
| 2026-05-04 19:06 | 7.27481 | 17.61888 | 37862 ft | 489 kts | 270° |
| 2026-05-04 19:06 | 7.27592 | 17.55080 | 37857 ft | 489 kts | 271° |
| 2026-05-04 19:07 | 7.27698 | 17.48232 | 37860 ft | 489 kts | 270° |
| 2026-05-04 19:07 | 7.27804 | 17.41379 | 37860 ft | 489 kts | 270° |
| 2026-05-04 19:08 | 7.27913 | 17.34512 | 37857 ft | 487 kts | 270° |
| 2026-05-04 19:08 | 7.28016 | 17.27670 | 37863 ft | 489 kts | 270° |
| 2026-05-04 19:09 | 7.28123 | 17.20865 | 37858 ft | 489 kts | 271° |
| 2026-05-04 19:09 | 7.28260 | 17.13999 | 37860 ft | 489 kts | 271° |
| 2026-05-04 19:10 | 7.28400 | 17.07157 | 37856 ft | 489 kts | 271° |
| 2026-05-04 19:10 | 7.28543 | 17.00302 | 37863 ft | 489 kts | 271° |
| 2026-05-04 19:11 | 7.28677 | 16.93484 | 37859 ft | 488 kts | 271° |
| 2026-05-04 19:11 | 7.28804 | 16.86640 | 37863 ft | 489 kts | 271° |
| 2026-05-04 19:12 | 7.29001 | 16.76352 | 37858 ft | 489 kts | 271° |
| 2026-05-04 19:13 | 7.29133 | 16.69507 | 37860 ft | 489 kts | 271° |
| 2026-05-04 19:13 | 7.29262 | 16.62692 | 37853 ft | 489 kts | 271° |
| 2026-05-04 19:14 | 7.29391 | 16.55843 | 37849 ft | 489 kts | 271° |
| 2026-05-04 19:14 | 7.29519 | 16.48994 | 37854 ft | 489 kts | 271° |
| 2026-05-04 19:15 | 7.29641 | 16.42145 | 37851 ft | 488 kts | 271° |
| 2026-05-04 19:15 | 7.29768 | 16.35299 | 37851 ft | 488 kts | 271° |
| 2026-05-04 19:16 | 7.29789 | 16.28458 | 37852 ft | 489 kts | 269° |
| 2026-05-04 19:16 | 7.29719 | 16.21613 | 37851 ft | 488 kts | 269° |
| 2026-05-04 19:17 | 7.29655 | 16.14809 | 37849 ft | 488 kts | 269° |
| 2026-05-04 19:17 | 7.29608 | 16.07970 | 37850 ft | 488 kts | 269° |
| 2026-05-04 19:18 | 7.29571 | 16.01125 | 37847 ft | 489 kts | 269° |
| 2026-05-04 19:18 | 7.29532 | 15.94286 | 37852 ft | 488 kts | 270° |
| 2026-05-04 19:19 | 7.29493 | 15.87496 | 37848 ft | 487 kts | 270° |
| 2026-05-04 19:19 | 7.29451 | 15.80671 | 37852 ft | 487 kts | 270° |
| 2026-05-04 19:20 | 7.29408 | 15.73847 | 37850 ft | 487 kts | 270° |
| 2026-05-04 19:20 | 7.29363 | 15.67016 | 37841 ft | 487 kts | 270° |
| 2026-05-04 19:21 | 7.29318 | 15.60182 | 37841 ft | 487 kts | 270° |
| 2026-05-04 19:21 | 7.29272 | 15.53355 | 37841 ft | 487 kts | 270° |
| 2026-05-04 19:22 | 7.29209 | 15.46572 | 37842 ft | 487 kts | 269° |
| 2026-05-04 19:22 | 7.28982 | 15.39753 | 37842 ft | 487 kts | 268° |
| 2026-05-04 19:23 | 7.28717 | 15.32941 | 37841 ft | 487 kts | 268° |
| 2026-05-04 19:23 | 7.28471 | 15.26116 | 37841 ft | 486 kts | 268° |
| 2026-05-04 19:24 | 7.28241 | 15.19293 | 37841 ft | 487 kts | 268° |
| 2026-05-04 19:24 | 7.28020 | 15.12528 | 37842 ft | 486 kts | 268° |
| 2026-05-04 19:25 | 7.27793 | 15.05713 | 37841 ft | 486 kts | 268° |
| 2026-05-04 19:25 | 7.27568 | 14.98909 | 37833 ft | 485 kts | 268° |
| 2026-05-04 19:26 | 7.27335 | 14.92101 | 37833 ft | 486 kts | 268° |
| 2026-05-04 19:26 | 7.27108 | 14.85296 | 37831 ft | 486 kts | 268° |
| 2026-05-04 19:27 | 7.26880 | 14.78536 | 37831 ft | 486 kts | 268° |
| 2026-05-04 19:27 | 7.26648 | 14.71731 | 37833 ft | 485 kts | 268° |
| 2026-05-04 19:28 | 7.26416 | 14.64948 | 37832 ft | 485 kts | 268° |
| 2026-05-04 19:28 | 7.26182 | 14.58145 | 37831 ft | 485 kts | 268° |
| 2026-05-04 19:29 | 7.25946 | 14.51352 | 37834 ft | 486 kts | 268° |
| 2026-05-04 19:29 | 7.25711 | 14.44550 | 37832 ft | 485 kts | 268° |
| 2026-05-04 19:30 | 7.25472 | 14.37757 | 37830 ft | 485 kts | 268° |
| 2026-05-04 19:30 | 7.25233 | 14.31009 | 37831 ft | 485 kts | 268° |
| 2026-05-04 19:31 | 7.24991 | 14.24224 | 37833 ft | 485 kts | 268° |
| 2026-05-04 19:31 | 7.24748 | 14.17430 | 37833 ft | 485 kts | 268° |
| 2026-05-04 19:32 | 7.24508 | 14.10642 | 37830 ft | 485 kts | 268° |
| 2026-05-04 19:32 | 7.24264 | 14.03852 | 37823 ft | 485 kts | 268° |
| 2026-05-04 19:33 | 7.24017 | 13.97054 | 37822 ft | 484 kts | 268° |
| 2026-05-04 19:33 | 7.23770 | 13.90328 | 37823 ft | 483 kts | 268° |
| 2026-05-04 19:34 | 7.23523 | 13.83530 | 37822 ft | 484 kts | 268° |
| 2026-05-04 19:34 | 7.23278 | 13.76751 | 37824 ft | 484 kts | 268° |
| 2026-05-04 19:35 | 7.23030 | 13.70035 | 37823 ft | 483 kts | 268° |
| 2026-05-04 19:35 | 7.22778 | 13.63260 | 37822 ft | 484 kts | 268° |
| 2026-05-04 19:36 | 7.22530 | 13.56494 | 37825 ft | 483 kts | 268° |
| 2026-05-04 19:36 | 7.22287 | 13.49727 | 37824 ft | 484 kts | 268° |
| 2026-05-04 19:37 | 7.22030 | 13.42963 | 37823 ft | 483 kts | 268° |
| 2026-05-04 19:37 | 7.21781 | 13.36193 | 37827 ft | 483 kts | 268° |
| 2026-05-04 19:38 | 7.21536 | 13.29464 | 37824 ft | 484 kts | 268° |
| 2026-05-04 19:38 | 7.21284 | 13.22696 | 37825 ft | 484 kts | 268° |
| 2026-05-04 19:39 | 7.21034 | 13.15930 | 37823 ft | 483 kts | 268° |
| 2026-05-04 19:39 | 7.20779 | 13.09167 | 37831 ft | 484 kts | 268° |
| 2026-05-04 19:40 | 7.20520 | 13.02391 | 37832 ft | 484 kts | 268° |
| 2026-05-04 19:40 | 7.20261 | 12.95623 | 37833 ft | 484 kts | 268° |
| 2026-05-04 19:41 | 7.20005 | 12.88853 | 37832 ft | 484 kts | 268° |
| 2026-05-04 19:41 | 7.19745 | 12.82077 | 37832 ft | 483 kts | 268° |
| 2026-05-04 19:42 | 7.19484 | 12.75313 | 37833 ft | 483 kts | 268° |
| 2026-05-04 19:42 | 7.19225 | 12.68580 | 37836 ft | 483 kts | 268° |
| 2026-05-04 19:42 | 7.19096 | 12.65197 | 37987 ft | 483 kts | 268° |
| 2026-05-04 19:43 | 7.18963 | 12.61808 | 38258 ft | 482 kts | 268° |
| 2026-05-04 19:43 | 7.18832 | 12.58435 | 38518 ft | 482 kts | 268° |
| 2026-05-04 19:43 | 7.18701 | 12.55059 | 38798 ft | 482 kts | 268° |
| 2026-05-04 19:43 | 7.18572 | 12.51720 | 39083 ft | 481 kts | 268° |
| 2026-05-04 19:44 | 7.18441 | 12.48363 | 39334 ft | 480 kts | 268° |
| 2026-05-04 19:44 | 7.18310 | 12.45002 | 39576 ft | 480 kts | 268° |
| 2026-05-04 19:44 | 7.18179 | 12.41643 | 39781 ft | 480 kts | 268° |
| 2026-05-04 19:45 | 7.17914 | 12.34902 | 39839 ft | 481 kts | 268° |
| 2026-05-04 19:45 | 7.17648 | 12.28168 | 39842 ft | 481 kts | 268° |
| 2026-05-04 19:46 | 7.17382 | 12.21425 | 39849 ft | 481 kts | 268° |
| 2026-05-04 19:46 | 7.17117 | 12.14731 | 39853 ft | 481 kts | 268° |
| 2026-05-04 19:47 | 7.16847 | 12.07984 | 39850 ft | 481 kts | 268° |
| 2026-05-04 19:47 | 7.16577 | 12.01258 | 39850 ft | 480 kts | 268° |
| 2026-05-04 19:48 | 7.16305 | 11.94530 | 39850 ft | 481 kts | 267° |
| 2026-05-04 19:48 | 7.16032 | 11.87787 | 39849 ft | 482 kts | 267° |
| 2026-05-04 19:49 | 7.15761 | 11.81037 | 39858 ft | 482 kts | 268° |
| 2026-05-04 19:49 | 7.15592 | 11.74320 | 39859 ft | 482 kts | 269° |
| 2026-05-04 19:50 | 7.15460 | 11.67573 | 39860 ft | 480 kts | 269° |
| 2026-05-04 19:50 | 7.15315 | 11.60823 | 39860 ft | 483 kts | 269° |
| 2026-05-04 19:51 | 7.15160 | 11.54070 | 39859 ft | 482 kts | 268° |
| 2026-05-04 19:51 | 7.15025 | 11.48462 | 39861 ft | 482 kts | 268° |
| 2026-05-04 19:52 | 7.14861 | 11.41718 | 39869 ft | 482 kts | 268° |
| 2026-05-04 19:52 | 7.14671 | 11.33874 | 39868 ft | 482 kts | 268° |
| 2026-05-04 19:53 | 7.14532 | 11.28223 | 39870 ft | 482 kts | 268° |
| 2026-05-04 19:53 | 7.14367 | 11.21517 | 39868 ft | 482 kts | 268° |
| 2026-05-04 19:54 | 7.14203 | 11.14764 | 39869 ft | 482 kts | 268° |
| 2026-05-04 19:54 | 7.14035 | 11.07991 | 39874 ft | 482 kts | 268° |
| 2026-05-04 19:55 | 7.13866 | 11.01242 | 39879 ft | 482 kts | 268° |
| 2026-05-04 19:55 | 7.13697 | 10.94477 | 39878 ft | 482 kts | 268° |
| 2026-05-04 19:56 | 7.13530 | 10.87766 | 39879 ft | 482 kts | 268° |
| 2026-05-04 19:56 | 7.13360 | 10.81000 | 39880 ft | 482 kts | 268° |
| 2026-05-04 19:57 | 7.13188 | 10.74250 | 39875 ft | 482 kts | 268° |
| 2026-05-04 19:57 | 7.13013 | 10.67500 | 39869 ft | 482 kts | 268° |
| 2026-05-04 19:58 | 7.12840 | 10.60775 | 39867 ft | 483 kts | 268° |
| 2026-05-04 19:58 | 7.12665 | 10.54014 | 39869 ft | 483 kts | 268° |
| 2026-05-04 19:59 | 7.12489 | 10.47230 | 39870 ft | 483 kts | 268° |
| 2026-05-04 19:59 | 7.12311 | 10.40470 | 39869 ft | 483 kts | 268° |
| 2026-05-04 20:00 | 7.12133 | 10.33738 | 39868 ft | 484 kts | 268° |
| 2026-05-04 20:00 | 7.11955 | 10.26966 | 39868 ft | 483 kts | 268° |
| 2026-05-04 20:01 | 7.11770 | 10.20192 | 39869 ft | 483 kts | 268° |
| 2026-05-04 20:01 | 7.11583 | 10.13472 | 39868 ft | 483 kts | 268° |
| 2026-05-04 20:02 | 7.11397 | 10.06702 | 39870 ft | 483 kts | 268° |
| 2026-05-04 20:02 | 7.11209 | 9.99943 | 39869 ft | 483 kts | 268° |
| 2026-05-04 20:03 | 7.11017 | 9.93173 | 39869 ft | 483 kts | 268° |
| 2026-05-04 20:03 | 7.10825 | 9.86405 | 39870 ft | 483 kts | 268° |
| 2026-05-04 20:04 | 7.10632 | 9.79636 | 39869 ft | 484 kts | 268° |
| 2026-05-04 20:04 | 7.10438 | 9.72854 | 39870 ft | 483 kts | 268° |
| 2026-05-04 20:05 | 7.10243 | 9.66119 | 39860 ft | 484 kts | 268° |
| 2026-05-04 20:05 | 7.10049 | 9.59350 | 39860 ft | 484 kts | 268° |
| 2026-05-04 20:06 | 7.09852 | 9.52571 | 39859 ft | 484 kts | 268° |
| 2026-05-04 20:06 | 7.09655 | 9.45805 | 39861 ft | 485 kts | 268° |
| 2026-05-04 20:07 | 7.09457 | 9.39020 | 39861 ft | 484 kts | 268° |
| 2026-05-04 20:07 | 7.09255 | 9.32248 | 39864 ft | 484 kts | 268° |
| 2026-05-04 20:08 | 7.09055 | 9.25507 | 39868 ft | 484 kts | 268° |
| 2026-05-04 20:08 | 7.08855 | 9.18727 | 39869 ft | 484 kts | 268° |
| 2026-05-04 20:09 | 7.08538 | 9.11960 | 39869 ft | 484 kts | 266° |
| 2026-05-04 20:09 | 7.08110 | 9.05193 | 39869 ft | 484 kts | 266° |
| 2026-05-04 20:10 | 7.07690 | 8.98428 | 39869 ft | 484 kts | 266° |
| 2026-05-04 20:10 | 7.07293 | 8.91705 | 39869 ft | 485 kts | 266° |
| 2026-05-04 20:11 | 7.06901 | 8.84931 | 39868 ft | 484 kts | 266° |
| 2026-05-04 20:11 | 7.06510 | 8.78158 | 39869 ft | 484 kts | 266° |
| 2026-05-04 20:12 | 7.06116 | 8.71375 | 39868 ft | 484 kts | 266° |
| 2026-05-04 20:12 | 7.05723 | 8.64603 | 39870 ft | 484 kts | 266° |
| 2026-05-04 20:13 | 7.05331 | 8.57876 | 39869 ft | 484 kts | 266° |
| 2026-05-04 20:13 | 7.04933 | 8.51101 | 39870 ft | 485 kts | 266° |
| 2026-05-04 20:14 | 7.04533 | 8.44322 | 39859 ft | 485 kts | 266° |
| 2026-05-04 20:14 | 7.04137 | 8.37586 | 39864 ft | 485 kts | 266° |
| 2026-05-04 20:15 | 7.03737 | 8.30820 | 39868 ft | 484 kts | 266° |
| 2026-05-04 20:15 | 7.03336 | 8.24042 | 39870 ft | 485 kts | 266° |
| 2026-05-04 20:16 | 7.02936 | 8.17263 | 39862 ft | 484 kts | 266° |
| 2026-05-04 20:16 | 7.02537 | 8.10499 | 39860 ft | 484 kts | 266° |
| 2026-05-04 20:17 | 7.02132 | 8.03718 | 39860 ft | 485 kts | 266° |
| 2026-05-04 20:17 | 7.01727 | 7.96979 | 39859 ft | 485 kts | 266° |
| 2026-05-04 20:18 | 7.01321 | 7.90190 | 39862 ft | 485 kts | 266° |
| 2026-05-04 20:18 | 7.00914 | 7.83403 | 39861 ft | 486 kts | 266° |
| 2026-05-04 20:19 | 7.00503 | 7.76610 | 39859 ft | 486 kts | 266° |
| 2026-05-04 20:19 | 7.00091 | 7.69822 | 39860 ft | 485 kts | 266° |
| 2026-05-04 20:20 | 6.99672 | 7.63081 | 39860 ft | 485 kts | 266° |
| 2026-05-04 20:20 | 6.99251 | 7.56292 | 39859 ft | 486 kts | 266° |
| 2026-05-04 20:21 | 6.98835 | 7.49499 | 39861 ft | 486 kts | 266° |
| 2026-05-04 20:21 | 6.98212 | 7.39321 | 39859 ft | 485 kts | 266° |
| 2026-05-04 20:22 | 6.97796 | 7.32546 | 39859 ft | 485 kts | 266° |
| 2026-05-04 20:22 | 6.97378 | 7.25767 | 39866 ft | 485 kts | 266° |
| 2026-05-04 20:23 | 6.96962 | 7.19016 | 39870 ft | 485 kts | 266° |
| 2026-05-04 20:23 | 6.96542 | 7.12225 | 39868 ft | 485 kts | 266° |
| 2026-05-04 20:24 | 6.96115 | 7.05435 | 39869 ft | 485 kts | 266° |
| 2026-05-04 20:24 | 6.95688 | 6.98699 | 39868 ft | 485 kts | 266° |
| 2026-05-04 20:25 | 6.95259 | 6.91912 | 39874 ft | 485 kts | 266° |
| 2026-05-04 20:25 | 6.94831 | 6.85124 | 39878 ft | 485 kts | 266° |
| 2026-05-04 20:26 | 6.94401 | 6.78343 | 39879 ft | 485 kts | 266° |
| 2026-05-04 20:26 | 6.93969 | 6.71555 | 39877 ft | 485 kts | 266° |
| 2026-05-04 20:27 | 6.93538 | 6.64817 | 39887 ft | 485 kts | 266° |
| 2026-05-04 20:27 | 6.93108 | 6.58039 | 39887 ft | 485 kts | 266° |
| 2026-05-04 20:28 | 6.92673 | 6.51249 | 39888 ft | 485 kts | 266° |
| 2026-05-04 20:28 | 6.92238 | 6.44474 | 39893 ft | 485 kts | 266° |
| 2026-05-04 20:29 | 6.91800 | 6.37688 | 39897 ft | 485 kts | 266° |
| 2026-05-04 20:29 | 6.91357 | 6.30910 | 39897 ft | 485 kts | 266° |
| 2026-05-04 20:30 | 6.90918 | 6.24165 | 39896 ft | 486 kts | 266° |
| 2026-05-04 20:30 | 6.90479 | 6.17382 | 39897 ft | 485 kts | 266° |
| 2026-05-04 20:31 | 6.90040 | 6.10603 | 39907 ft | 485 kts | 266° |
| 2026-05-04 20:31 | 6.89595 | 6.03830 | 39906 ft | 485 kts | 266° |
| 2026-05-04 20:32 | 6.89151 | 5.97082 | 39907 ft | 485 kts | 266° |
| 2026-05-04 20:32 | 6.88709 | 5.90307 | 39906 ft | 485 kts | 266° |
| 2026-05-04 20:33 | 6.88277 | 5.83522 | 39907 ft | 485 kts | 266° |
| 2026-05-04 20:33 | 6.87846 | 5.76738 | 39906 ft | 485 kts | 266° |
| 2026-05-04 20:34 | 6.87411 | 5.69956 | 39906 ft | 485 kts | 266° |
| 2026-05-04 20:34 | 6.86977 | 5.63178 | 39906 ft | 486 kts | 266° |
| 2026-05-04 20:35 | 6.86544 | 5.56440 | 39907 ft | 486 kts | 266° |
| 2026-05-04 20:35 | 6.86108 | 5.49648 | 39913 ft | 486 kts | 266° |
| 2026-05-04 20:36 | 6.85672 | 5.42872 | 39920 ft | 485 kts | 266° |
| 2026-05-04 20:36 | 6.85235 | 5.36086 | 39917 ft | 485 kts | 266° |
| 2026-05-04 20:37 | 6.84794 | 5.29341 | 39917 ft | 485 kts | 266° |
| 2026-05-04 20:37 | 6.84353 | 5.22515 | 39915 ft | 485 kts | 266° |
| 2026-05-04 20:38 | 6.83916 | 5.15783 | 39917 ft | 485 kts | 266° |
| 2026-05-04 20:38 | 6.83473 | 5.08993 | 39914 ft | 486 kts | 266° |
| 2026-05-04 20:39 | 6.83029 | 5.02212 | 39916 ft | 485 kts | 266° |
| 2026-05-04 20:39 | 6.82586 | 4.95434 | 39925 ft | 485 kts | 266° |
| 2026-05-04 20:40 | 6.82119 | 4.88672 | 39924 ft | 485 kts | 266° |
| 2026-05-04 20:40 | 6.81613 | 4.81903 | 39923 ft | 485 kts | 266° |
| 2026-05-04 20:41 | 6.81190 | 4.76281 | 39923 ft | 485 kts | 266° |
| 2026-05-04 20:41 | 6.80687 | 4.69530 | 39619 ft | 480 kts | 266° |
| 2026-05-04 20:42 | 6.80355 | 4.65089 | 38565 ft | 483 kts | 266° |
| 2026-05-04 20:42 | 6.80186 | 4.62802 | 38002 ft | 485 kts | 266° |
| 2026-05-04 20:42 | 6.79936 | 4.59410 | 37175 ft | 487 kts | 266° |
| 2026-05-04 20:42 | 6.79688 | 4.56004 | 36322 ft | 490 kts | 266° |
| 2026-05-04 20:43 | 6.79435 | 4.52564 | 35460 ft | 492 kts | 266° |
| 2026-05-04 20:43 | 6.79182 | 4.49160 | 34552 ft | 496 kts | 266° |
| 2026-05-04 20:43 | 6.78925 | 4.45680 | 33594 ft | 500 kts | 266° |
| 2026-05-04 20:43 | 6.78941 | 4.42170 | 32698 ft | 502 kts | 272° |
| 2026-05-04 20:44 | 6.79093 | 4.38658 | 31912 ft | 502 kts | 273° |
| 2026-05-04 20:44 | 6.79269 | 4.35158 | 31202 ft | 500 kts | 273° |
| 2026-05-04 20:44 | 6.79452 | 4.31678 | 30537 ft | 497 kts | 273° |
| 2026-05-04 20:44 | 6.79638 | 4.28211 | 29872 ft | 494 kts | 273° |
| 2026-05-04 20:45 | 6.79823 | 4.24779 | 29280 ft | 490 kts | 273° |
| 2026-05-04 20:45 | 6.80008 | 4.21372 | 28684 ft | 486 kts | 273° |
| 2026-05-04 20:45 | 6.80192 | 4.17984 | 28079 ft | 482 kts | 273° |
| 2026-05-04 20:45 | 6.80373 | 4.14624 | 27457 ft | 479 kts | 273° |
| 2026-05-04 20:46 | 6.80551 | 4.11336 | 26891 ft | 475 kts | 273° |
| 2026-05-04 20:46 | 6.80729 | 4.08043 | 26229 ft | 465 kts | 273° |
| 2026-05-04 20:46 | 6.80904 | 4.04829 | 25064 ft | 457 kts | 274° |
| 2026-05-04 20:46 | 6.81076 | 4.01649 | 23760 ft | 452 kts | 274° |
| 2026-05-04 20:47 | 6.81245 | 3.98513 | 22502 ft | 446 kts | 274° |
| 2026-05-04 20:47 | 6.81410 | 3.95419 | 21261 ft | 439 kts | 274° |
| 2026-05-04 20:47 | 6.81576 | 3.92373 | 20037 ft | 432 kts | 274° |
| 2026-05-04 20:47 | 6.81742 | 3.89378 | 18884 ft | 424 kts | 274° |
| 2026-05-04 20:48 | 6.81896 | 3.86485 | 18312 ft | 403 kts | 274° |
| 2026-05-04 20:48 | 6.82042 | 3.83746 | 17880 ft | 380 kts | 274° |
| 2026-05-04 20:48 | 6.82180 | 3.81163 | 17466 ft | 360 kts | 274° |
| 2026-05-04 20:48 | 6.82312 | 3.78689 | 16830 ft | 349 kts | 274° |
| 2026-05-04 20:49 | 6.82443 | 3.76263 | 16061 ft | 345 kts | 274° |
| 2026-05-04 20:49 | 6.82570 | 3.73873 | 15272 ft | 339 kts | 274° |
| 2026-05-04 20:49 | 6.82697 | 3.71512 | 14441 ft | 336 kts | 274° |
| 2026-05-04 20:49 | 6.82822 | 3.69202 | 13645 ft | 333 kts | 274° |
| 2026-05-04 20:50 | 6.82946 | 3.66890 | 12858 ft | 329 kts | 274° |
| 2026-05-04 20:50 | 6.83039 | 3.64599 | 12062 ft | 327 kts | 271° |
| 2026-05-04 20:50 | 6.82998 | 3.62325 | 11254 ft | 323 kts | 269° |
| 2026-05-04 20:50 | 6.82936 | 3.60080 | 10485 ft | 319 kts | 269° |
| 2026-05-04 20:51 | 6.82882 | 3.57869 | 9752 ft | 313 kts | 269° |
| 2026-05-04 20:51 | 6.82834 | 3.55702 | 9032 ft | 307 kts | 269° |
| 2026-05-04 20:51 | 6.82793 | 3.53568 | 8280 ft | 302 kts | 269° |
| 2026-05-04 20:51 | 6.82756 | 3.51467 | 7532 ft | 298 kts | 269° |
| 2026-05-04 20:52 | 6.82723 | 3.49577 | 6856 ft | 294 kts | 269° |
| 2026-05-04 20:52 | 6.82695 | 3.47576 | 6146 ft | 291 kts | 269° |
| 2026-05-04 20:52 | 6.82662 | 3.45565 | 5407 ft | 286 kts | 269° |
| 2026-05-04 20:52 | 6.82635 | 3.43581 | 4654 ft | 283 kts | 269° |
| 2026-05-04 20:53 | 6.82608 | 3.41631 | 4145 ft | 275 kts | 269° |
| 2026-05-04 20:53 | 6.82575 | 3.39705 | 3963 ft | 275 kts | 269° |
| 2026-05-04 20:53 | 6.82546 | 3.37786 | 3941 ft | 274 kts | 269° |
| 2026-05-04 20:53 | 6.82517 | 3.35888 | 3939 ft | 264 kts | 269° |
| 2026-05-04 20:54 | 6.82493 | 3.34099 | 3936 ft | 246 kts | 269° |
| 2026-05-04 20:54 | 6.82235 | 3.32471 | 3925 ft | 229 kts | 246° |
| 2026-05-04 20:54 | 6.81239 | 3.31337 | 3886 ft | 214 kts | 205° |
| 2026-05-04 20:54 | 6.79793 | 3.31002 | 3977 ft | 213 kts | 181° |
| 2026-05-04 20:55 | 6.78295 | 3.31062 | 3956 ft | 218 kts | 176° |
| 2026-05-04 20:55 | 6.76784 | 3.31114 | 3701 ft | 216 kts | 180° |
| 2026-05-04 20:55 | 6.75279 | 3.31112 | 3351 ft | 216 kts | 180° |
| 2026-05-04 20:55 | 6.73772 | 3.31128 | 3007 ft | 217 kts | 179° |
| 2026-05-04 20:56 | 6.72293 | 3.31150 | 2730 ft | 214 kts | 180° |
| 2026-05-04 20:56 | 6.70841 | 3.31166 | 2435 ft | 204 kts | 180° |
| 2026-05-04 20:56 | 6.69481 | 3.31184 | 2163 ft | 187 kts | 179° |
| 2026-05-04 20:56 | 6.68214 | 3.31197 | 1917 ft | 177 kts | 179° |
| 2026-05-04 20:57 | 6.67015 | 3.31210 | 1685 ft | 168 kts | 180° |
| 2026-05-04 20:57 | 6.65884 | 3.31225 | 1460 ft | 156 kts | 179° |
| 2026-05-04 20:57 | 6.64836 | 3.31240 | 1273 ft | 146 kts | 177° |
| 2026-05-04 20:57 | 6.63831 | 3.31280 | 1098 ft | 145 kts | 175° |
| 2026-05-04 20:58 | 6.62820 | 3.31319 | 884 ft | 145 kts | 173° |
| 2026-05-04 20:58 | 6.61812 | 3.31286 | 694 ft | 145 kts | 180° |
| 2026-05-04 20:58 | 6.60810 | 3.31290 | 571 ft | 144 kts | 177° |
| 2026-05-04 20:58 | 6.59817 | 3.31317 | 397 ft | 144 kts | 185° |
| 2026-05-04 20:59 | 6.58814 | 3.31306 | 213 ft | 143 kts | 176° |
| 2026-05-04 20:59 | 6.57836 | 3.31331 | 126 ft | 133 kts | 187° |
| 2026-05-04 20:59 | 6.56994 | 3.31330 | 122 ft | 102 kts | 179° |
| 2026-05-04 20:59 | 6.56576 | 3.31342 | 122 ft | 25 kts | 164° |
| 2026-05-04 21:00 | 6.56455 | 3.31415 | 121 ft | 15 kts | 144° |
| 2026-05-04 21:00 | 6.56401 | 3.31493 | 119 ft | 14 kts | 90° |
| 2026-05-04 21:00 | 6.56476 | 3.31542 | 123 ft | 15 kts | 4° |
| 2026-05-04 21:00 | 6.56590 | 3.31543 | 121 ft | 18 kts | 0° |
| 2026-05-04 21:01 | 6.56725 | 3.31542 | 123 ft | 21 kts | 359° |
| 2026-05-04 21:01 | 6.56878 | 3.31540 | 123 ft | 23 kts | 359° |
| 2026-05-04 21:01 | 6.57022 | 3.31536 | 120 ft | 0 kts | 358° |
| 2026-05-04 21:01 | 6.57033 | 3.31536 | 124 ft | 10 kts | 358° |
| 2026-05-04 21:02 | 6.57188 | 3.31532 | 123 ft | 26 kts | 359° |
| 2026-05-04 21:02 | 6.57376 | 3.31529 | 123 ft | 28 kts | 359° |
| 2026-05-04 21:02 | 6.57577 | 3.31526 | 122 ft | 29 kts | 359° |
| 2026-05-04 21:02 | 6.57784 | 3.31523 | 120 ft | 30 kts | 359° |
| 2026-05-04 21:03 | 6.57965 | 3.31522 | 120 ft | 18 kts | 0° |
| 2026-05-04 21:03 | 6.58066 | 3.31589 | 118 ft | 19 kts | 65° |
| 2026-05-04 21:03 | 6.58109 | 3.31700 | 121 ft | 12 kts | 67° |
| 2026-05-04 21:03 | 6.58147 | 3.31790 | 118 ft | 16 kts | 67° |
| 2026-05-04 21:04 | 6.58194 | 3.31901 | 119 ft | 19 kts | 67° |
| 2026-05-04 21:04 | 6.58212 | 3.31995 | 124 ft | 14 kts | 109° |
| 2026-05-04 21:04 | 6.58141 | 3.32050 | 121 ft | 9 kts | 158° |
| 2026-05-04 21:04 | 6.58109 | 3.32054 | 119 ft | 5 kts | 193° |
| 2026-05-04 21:05 | 6.58083 | 3.32026 | 119 ft | 5 kts | 243° |
| 2026-05-04 21:05 | 6.58075 | 3.32009 | 124 ft | 0 kts | 247° |